Time;durP1;ratioP1;P1;durP2;ratioP2;P2;SDS_P1;SDS_P2;PMS_P1;PMS_P2;Temp;Humidity;BMP_temperature;BMP_pressure;BME280_temperature;BME280_humidity;BME280_pressure;Samples;Min_cycle;Max_cycle;Signal;HPM_P1;HPM_P2
2022/12/26 00:01:40;;;;;;;;;;;9.60;99.90;;;;;;8403078;28;19935;-77
2022/12/26 00:05:41;;;;;;;;;;;9.60;99.90;;;;;;8388149;28;19929;-77
2022/12/26 00:09:43;;;;;;;;;;;9.60;99.90;;;;;;8396302;28;20261;-77
2022/12/26 00:13:45;;;;;;;;;;;9.60;99.90;;;;;;8388232;28;19925;-77
2022/12/26 00:17:46;;;;;;;;;;;9.60;99.90;;;;;;8386923;28;19931;-77
2022/12/26 00:21:48;;;;;;;;;;;9.60;99.90;;;;;;8391558;28;19924;-77
2022/12/26 00:25:50;;;;;;;;;;;9.60;99.90;;;;;;8388213;28;20382;-77
2022/12/26 00:29:51;;;;;;;;;;;9.60;99.90;;;;;;8409825;28;19928;-77
2022/12/26 00:33:53;;;;;;;;;;;9.60;99.90;;;;;;8425261;28;19977;-77
2022/12/26 00:37:54;;;;;;;;;;;9.60;99.90;;;;;;8422059;28;20298;-77
2022/12/26 00:41:56;;;;;;;;;;;9.60;99.90;;;;;;8416357;28;19931;-77
2022/12/26 00:45:58;;;;;;;;;;;9.60;99.90;;;;;;8426050;28;19924;-77
2022/12/26 00:50:00;;;;;;;;;;;9.60;99.90;;;;;;8425869;28;19981;-77
2022/12/26 00:54:14;;;;;;;;;;;9.50;99.90;;;;;;8411799;28;19924;-77
2022/12/26 00:58:16;;;;;;;;;;;9.60;99.90;;;;;;8407021;28;19931;-77
2022/12/26 01:02:39;;;;;;;;;;;9.60;99.90;;;;;;8427581;28;19924;-77
2022/12/26 01:06:40;;;;;;;;;;;9.60;99.90;;;;;;8425295;28;20268;-78
2022/12/26 01:10:43;;;;;;;;;;;9.50;99.90;;;;;;8423329;28;20015;-77
2022/12/26 01:14:45;;;;;;;;;;;9.50;99.90;;;;;;8407147;28;20405;-77
2022/12/26 01:18:46;;;;;;;;;;;9.50;99.90;;;;;;8410043;28;19924;-77
2022/12/26 01:23:16;;;;;;;;;;;9.50;99.90;;;;;;8401008;28;20488;-77
2022/12/26 01:27:18;;;;;;;;;;;9.50;99.90;;;;;;8420208;28;19932;-77
2022/12/26 01:31:20;;;;;;;;;;;9.50;99.90;;;;;;8409134;28;19932;-77
2022/12/26 01:35:22;;;;;;;;;;;9.50;99.90;;;;;;8428300;28;20359;-77
2022/12/26 01:54:29;;;;;;;;;;;9.60;99.90;;;;;;8436921;28;20045;-77
2022/12/26 01:58:44;;;;;;;;;;;9.60;99.90;;;;;;8431326;28;19970;-77
2022/12/26 02:07:07;;;;;;;;;;;9.60;99.90;;;;;;8426828;28;20724;-77
2022/12/26 02:11:14;;;;;;;;;;;9.60;99.90;;;;;;8432765;28;19963;-77
2022/12/26 02:15:17;;;;;;;;;;;9.60;99.90;;;;;;8433924;28;20055;-77
2022/12/26 02:19:26;;;;;;;;;;;9.60;99.90;;;;;;8411002;28;19924;-77
2022/12/26 02:23:28;;;;;;;;;;;9.60;99.90;;;;;;8414724;28;19986;-77
2022/12/26 02:27:49;;;;;;;;;;;9.60;99.90;;;;;;8429819;28;19924;-77
2022/12/26 02:31:59;;;;;;;;;;;9.50;99.90;;;;;;8406399;28;20306;-77
2022/12/26 02:36:20;;;;;;;;;;;9.50;99.90;;;;;;8429690;28;19978;-77
2022/12/26 02:40:54;;;;;;;;;;;9.50;99.90;;;;;;8415778;28;20335;-77
2022/12/26 03:13:09;;;;;;;;;;;9.50;99.90;;;;;;8428220;28;19924;-77
2022/12/26 03:20:27;;;;;;;;;;;9.30;99.90;;;;;;8419160;28;20357;-77
2022/12/26 03:26:38;;;;;;;;;;;9.40;99.90;;;;;;8430228;28;20317;-77
2022/12/26 03:28:50;;;;;;;;;;;9.40;99.90;;;;;;8417014;28;19990;-77
2022/12/26 03:32:53;;;;;;;;;;;9.40;99.90;;;;;;8414483;28;19975;-76
2022/12/26 03:36:55;;;;;;;;;;;9.40;99.90;;;;;;8431159;28;20379;-77
2022/12/26 04:41:34;;;;;;;;;;;9.30;99.90;;;;;;8415386;28;19935;-76
2022/12/26 04:52:11;;;;;;;;;;;9.10;99.90;;;;;;8418324;28;19969;-76
2022/12/26 04:56:13;;;;;;;;;;;9.10;99.90;;;;;;8422774;28;19935;-76
2022/12/26 05:00:15;;;;;;;;;;;9.10;99.90;;;;;;8420748;28;19924;-76
2022/12/26 05:13:02;;;;;;;;;;;9.00;99.90;;;;;;8411533;28;19925;-76
2022/12/26 05:30:07;;;;;;;;;;;9.00;99.90;;;;;;8427007;28;20375;-76
2022/12/26 05:34:11;;;;;;;;;;;8.90;99.90;;;;;;8418876;28;19946;-76
2022/12/26 05:38:13;;;;;;;;;;;9.00;99.90;;;;;;8429767;28;19924;-76
2022/12/26 05:42:14;;;;;;;;;;;8.90;99.90;;;;;;8393871;28;19978;-76
2022/12/26 05:46:16;;;;;;;;;;;8.90;99.90;;;;;;8419899;28;19924;-76
2022/12/26 05:50:18;;;;;;;;;;;8.80;99.90;;;;;;8425467;28;19927;-75
2022/12/26 05:54:20;;;;;;;;;;;8.80;99.90;;;;;;8392549;28;19924;-75
2022/12/26 05:58:21;;;;;;;;;;;8.80;99.90;;;;;;8431138;28;20392;-75
2022/12/26 06:02:23;;;;;;;;;;;8.80;99.90;;;;;;8402112;28;20346;-76
2022/12/26 06:06:25;;;;;;;;;;;8.80;99.90;;;;;;8421682;28;19924;-76
2022/12/26 06:10:28;;;;;;;;;;;8.80;99.90;;;;;;8438384;28;19932;-75
2022/12/26 06:14:30;;;;;;;;;;;8.80;99.90;;;;;;8404164;28;20310;-75
2022/12/26 06:18:32;;;;;;;;;;;8.80;99.90;;;;;;8430838;28;20390;-76
2022/12/26 06:22:34;;;;;;;;;;;8.90;99.90;;;;;;8418084;28;19950;-76
2022/12/26 06:26:36;;;;;;;;;;;8.90;99.90;;;;;;8398995;28;20378;-76
2022/12/26 06:30:38;;;;;;;;;;;8.90;99.90;;;;;;8428590;28;19973;-76
2022/12/26 06:34:39;;;;;;;;;;;8.90;99.90;;;;;;8424267;28;20282;-76
2022/12/26 06:38:41;;;;;;;;;;;8.90;99.90;;;;;;8428359;28;19928;-76
2022/12/26 06:42:43;;;;;;;;;;;8.90;99.90;;;;;;8423679;28;19977;-76
2022/12/26 06:46:45;;;;;;;;;;;8.90;99.90;;;;;;8431563;28;19932;-76
2022/12/26 06:50:46;;;;;;;;;;;8.80;99.90;;;;;;8433767;28;19971;-76
2022/12/26 06:54:48;;;;;;;;;;;8.80;99.90;;;;;;8408217;28;21354;-76
2022/12/26 06:58:53;;;;;;;;;;;8.80;99.90;;;;;;8431257;28;19932;-77
2022/12/26 07:02:55;;;;;;;;;;;8.80;99.90;;;;;;8437490;28;19924;-76
2022/12/26 07:06:57;;;;;;;;;;;8.80;99.90;;;;;;8424237;28;19924;-76
2022/12/26 07:10:58;;;;;;;;;;;8.80;99.90;;;;;;8429594;28;19925;-77
2022/12/26 07:15:00;;;;;;;;;;;8.90;99.90;;;;;;8411491;28;19956;-77
2022/12/26 07:19:02;;;;;;;;;;;8.90;99.90;;;;;;8433737;28;19931;-77
2022/12/26 07:23:04;;;;;;;;;;;8.90;99.90;;;;;;8426419;28;19976;-76
2022/12/26 07:27:06;;;;;;;;;;;8.90;99.90;;;;;;8405645;28;20363;-76
2022/12/26 07:31:07;;;;;;;;;;;8.90;99.90;;;;;;8430298;28;19928;-76
2022/12/26 07:35:09;;;;;;;;;;;8.90;99.90;;;;;;8419499;28;19939;-76
2022/12/26 07:39:12;;;;;;;;;;;8.80;99.90;;;;;;8427663;28;19924;-76
2022/12/26 07:43:14;;;;;;;;;;;8.80;99.90;;;;;;8408957;28;20022;-76
2022/12/26 07:47:15;;;;;;;;;;;8.90;99.90;;;;;;8407406;28;19930;-76
2022/12/26 07:51:17;;;;;;;;;;;8.90;99.90;;;;;;8432595;28;19924;-76
2022/12/26 07:55:19;;;;;;;;;;;9.00;99.90;;;;;;8429489;28;20344;-77
2022/12/26 07:59:20;;;;;;;;;;;9.00;99.90;;;;;;8417612;28;19983;-77
2022/12/26 08:03:22;;;;;;;;;;;9.00;99.90;;;;;;8431989;28;19928;-76
2022/12/26 08:07:24;;;;;;;;;;;9.10;99.90;;;;;;8419992;28;19938;-76
2022/12/26 08:11:26;;;;;;;;;;;9.20;99.90;;;;;;8427665;28;19924;-76
2022/12/26 08:15:28;;;;;;;;;;;9.30;99.90;;;;;;8408242;28;19939;-76
2022/12/26 08:19:29;;;;;;;;;;;9.30;99.90;;;;;;8426713;28;20473;-75
2022/12/26 08:23:32;;;;;;;;;;;9.40;99.90;;;;;;8408679;28;20034;-76
2022/12/26 08:27:33;;;;;;;;;;;9.40;99.90;;;;;;8420849;28;19932;-77
2022/12/26 08:31:35;;;;;;;;;;;9.40;99.90;;;;;;8435332;27;19943;-77
2022/12/26 08:35:37;;;;;;;;;;;9.40;99.90;;;;;;8424997;28;19928;-78
2022/12/26 08:39:39;;;;;;;;;;;9.40;99.90;;;;;;8396736;28;20027;-77
2022/12/26 08:43:41;;;;;;;;;;;9.50;99.90;;;;;;8425032;28;19928;-76
2022/12/26 08:48:03;;;;;;;;;;;9.50;99.90;;;;;;8436873;28;20268;-77
2022/12/26 08:52:04;;;;;;;;;;;9.60;99.90;;;;;;8396045;28;19932;-76
2022/12/26 08:56:07;;;;;;;;;;;9.70;99.90;;;;;;8423492;28;19924;-75
2022/12/26 09:00:09;;;;;;;;;;;9.70;99.90;;;;;;8419387;28;19924;-76
2022/12/26 09:04:11;;;;;;;;;;;9.80;99.90;;;;;;8436886;28;19924;-75
2022/12/26 09:08:12;;;;;;;;;;;9.70;99.90;;;;;;8411984;28;19970;-75
2022/12/26 09:12:14;;;;;;;;;;;9.70;99.90;;;;;;8435341;28;19931;-76
2022/12/26 09:16:20;;;;;;;;;;;9.70;99.90;;;;;;8427110;28;19924;-76
2022/12/26 09:20:22;;;;;;;;;;;9.70;99.90;;;;;;8435162;27;19931;-77
2022/12/26 09:24:24;;;;;;;;;;;9.60;99.90;;;;;;8412060;28;19924;-77
2022/12/26 09:28:26;;;;;;;;;;;9.60;99.90;;;;;;8442330;28;19924;-77
2022/12/26 09:32:31;;;;;;;;;;;9.60;99.90;;;;;;8420635;28;19936;-77
2022/12/26 09:36:36;;;;;;;;;;;9.60;99.90;;;;;;8425877;28;19924;-77
2022/12/26 09:41:07;;;;;;;;;;;9.60;99.90;;;;;;8420882;28;19931;-77
2022/12/26 09:45:09;;;;;;;;;;;9.60;99.90;;;;;;8333501;28;19924;-77
2022/12/26 09:49:14;;;;;;;;;;;9.50;99.90;;;;;;8403936;28;19939;-77
2022/12/26 09:53:42;;;;;;;;;;;9.50;99.90;;;;;;8426668;28;19924;-76
2022/12/26 09:57:46;;;;;;;;;;;9.60;99.90;;;;;;8434300;28;19978;-72
2022/12/26 10:01:48;;;;;;;;;;;9.50;99.90;;;;;;8409619;28;19924;-72
2022/12/26 10:05:58;;;;;;;;;;;9.50;99.90;;;;;;8388415;28;20424;-72
2022/12/26 10:10:03;;;;;;;;;;;9.40;99.90;;;;;;8417397;28;19928;-72
2022/12/26 10:14:16;;;;;;;;;;;9.30;99.90;;;;;;8429065;28;19931;-72
2022/12/26 10:18:25;;;;;;;;;;;9.10;99.90;;;;;;8423204;28;19928;-72
2022/12/26 10:22:42;;;;;;;;;;;9.00;99.90;;;;;;8444852;28;19931;-72
2022/12/26 10:26:48;;;;;;;;;;;8.90;99.90;;;;;;8420333;28;19923;-72
2022/12/26 10:30:51;;;;;;;;;;;8.80;99.90;;;;;;8416844;28;19932;-72
2022/12/26 10:34:53;;;;;;;;;;;8.70;99.90;;;;;;8427674;28;19928;-72
2022/12/26 10:38:56;;;;;;;;;;;8.60;99.90;;;;;;8431628;28;19971;-72
2022/12/26 10:43:03;;;;;;;;;;;8.60;99.90;;;;;;8397455;28;19931;-72
2022/12/26 10:47:04;;;;;;;;;;;8.50;99.90;;;;;;8426791;28;19930;-72
2022/12/26 10:51:07;;;;;;;;;;;8.60;99.90;;;;;;8433272;28;19935;-72
2022/12/26 10:55:13;;;;;;;;;;;8.70;99.90;;;;;;8426892;28;20367;-72
2022/12/26 10:59:50;;;;;;;;;;;8.70;99.90;;;;;;8425729;28;19928;-72
2022/12/26 11:03:56;;;;;;;;;;;8.70;99.90;;;;;;8399643;28;19954;-72
2022/12/26 11:08:10;;;;;;;;;;;8.70;99.90;;;;;;8410786;28;20015;-72
2022/12/26 11:12:18;;;;;;;;;;;8.70;99.90;;;;;;8424834;28;19932;-72
2022/12/26 11:16:27;;;;;;;;;;;8.70;99.90;;;;;;8428690;28;20415;-72
2022/12/26 11:20:29;;;;;;;;;;;8.80;99.90;;;;;;8423314;28;19969;-72
2022/12/26 11:24:31;;;;;;;;;;;8.90;99.90;;;;;;8401233;28;19925;-72
2022/12/26 11:28:34;;;;;;;;;;;9.20;99.90;;;;;;8423244;28;19979;-73
2022/12/26 11:32:35;;;;;;;;;;;9.50;99.90;;;;;;8403904;28;19935;-72
2022/12/26 11:36:39;;;;;;;;;;;10.00;99.90;;;;;;8410784;28;19935;-72
2022/12/26 11:46:09;;;;;;;;;;;9.90;99.90;;;;;;8411797;28;19923;-72
2022/12/26 11:50:16;;;;;;;;;;;10.00;99.90;;;;;;8435385;28;20288;-72
2022/12/26 11:54:21;;;;;;;;;;;9.90;99.90;;;;;;8414495;28;19935;-72
2022/12/26 11:58:24;;;;;;;;;;;10.10;99.90;;;;;;8412341;28;19924;-72
2022/12/26 12:02:30;;;;;;;;;;;10.00;99.90;;;;;;8414646;28;19932;-72
2022/12/26 12:06:38;;;;;;;;;;;9.70;99.90;;;;;;8401204;28;20271;-72
2022/12/26 12:10:46;;;;;;;;;;;9.60;99.90;;;;;;8421959;28;19931;-72
2022/12/26 12:14:56;;;;;;;;;;;9.60;99.90;;;;;;8417416;28;19928;-72
2022/12/26 12:19:01;;;;;;;;;;;9.70;99.90;;;;;;8401764;28;20391;-72
2022/12/26 12:23:03;;;;;;;;;;;9.70;99.90;;;;;;8418594;28;20364;-72
2022/12/26 12:27:04;;;;;;;;;;;9.50;99.90;;;;;;8414913;28;19925;-72
2022/12/26 12:31:25;;;;;;;;;;;9.30;99.90;;;;;;8415469;28;19986;-72
2022/12/26 12:35:30;;;;;;;;;;;9.20;99.90;;;;;;8416624;28;19945;-72
2022/12/26 12:39:34;;;;;;;;;;;9.40;99.90;;;;;;8420236;28;19924;-72
2022/12/26 12:43:36;;;;;;;;;;;9.80;99.90;;;;;;8408533;28;19968;-72
2022/12/26 12:47:38;;;;;;;;;;;10.10;99.90;;;;;;8411100;28;19992;-72
2022/12/26 12:51:44;;;;;;;;;;;10.40;99.90;;;;;;8431864;28;19924;-74
2022/12/26 12:56:04;;;;;;;;;;;10.90;99.90;;;;;;8442826;28;20439;-75
2022/12/26 13:00:12;;;;;;;;;;;11.10;99.90;;;;;;8430813;28;19968;-75
2022/12/26 13:04:18;;;;;;;;;;;11.00;99.90;;;;;;8429274;28;19924;-75
2022/12/26 13:08:26;;;;;;;;;;;11.00;99.90;;;;;;8427434;28;19924;-74
2022/12/26 13:12:31;;;;;;;;;;;11.20;99.90;;;;;;8429183;28;19923;-75
2022/12/26 13:16:42;;;;;;;;;;;10.90;99.90;;;;;;8425518;28;20358;-75
2022/12/26 13:20:46;;;;;;;;;;;10.40;99.90;;;;;;8432966;28;19971;-75
2022/12/26 13:24:50;;;;;;;;;;;10.40;99.90;;;;;;8428159;28;19924;-74
2022/12/26 13:28:58;;;;;;;;;;;10.30;99.90;;;;;;8440345;28;19923;-74
2022/12/26 13:33:00;;;;;;;;;;;10.00;99.90;;;;;;8434312;28;19924;-74
2022/12/26 13:37:02;;;;;;;;;;;9.70;99.90;;;;;;8434114;28;19987;-74
2022/12/26 13:45:36;;;;;;;;;;;9.30;99.90;;;;;;8433088;28;19924;-74
2022/12/26 13:49:39;;;;;;;;;;;9.20;99.90;;;;;;8428468;28;19928;-74
2022/12/26 13:53:55;;;;;;;;;;;9.10;99.90;;;;;;8428508;28;20000;-74
2022/12/26 13:58:12;;;;;;;;;;;9.00;99.90;;;;;;8418998;28;19928;-74
2022/12/26 14:02:39;;;;;;;;;;;8.80;99.90;;;;;;8408949;28;20287;-74
2022/12/26 14:07:07;;;;;;;;;;;8.70;99.90;;;;;;8420321;28;19959;-74
2022/12/26 14:11:27;;;;;;;;;;;8.60;99.90;;;;;;8426847;28;19935;-74
2022/12/26 14:15:53;;;;;;;;;;;8.60;99.90;;;;;;8427489;28;21339;-74
2022/12/26 14:20:01;;;;;;;;;;;8.50;99.90;;;;;;8429146;28;20015;-74
2022/12/26 14:24:08;;;;;;;;;;;8.40;99.90;;;;;;8410306;28;19924;-74
2022/12/26 14:28:22;;;;;;;;;;;8.40;99.90;;;;;;8421794;28;20331;-74
2022/12/26 14:32:33;;;;;;;;;;;8.40;99.90;;;;;;8425922;28;21056;-75
2022/12/26 14:36:40;;;;;;;;;;;8.40;99.90;;;;;;8415202;28;19924;-74
2022/12/26 14:40:56;;;;;;;;;;;8.40;99.90;;;;;;8426904;28;19924;-74
2022/12/26 14:44:59;;;;;;;;;;;8.30;99.90;;;;;;8427126;28;19939;-74
2022/12/26 14:49:19;;;;;;;;;;;8.40;99.90;;;;;;8441264;28;19931;-74
2022/12/26 14:53:21;;;;;;;;;;;8.50;99.90;;;;;;8417238;28;19959;-74
2022/12/26 14:57:45;;;;;;;;;;;9.00;99.90;;;;;;8423408;28;20334;-74
2022/12/26 15:01:47;;;;;;;;;;;9.30;99.90;;;;;;8427445;28;19939;-74
2022/12/26 15:05:49;;;;;;;;;;;9.60;99.90;;;;;;8412907;28;19957;-74
2022/12/26 15:10:13;;;;;;;;;;;9.70;99.90;;;;;;8433339;28;19924;-74
2022/12/26 15:14:32;;;;;;;;;;;9.70;99.90;;;;;;8406832;28;19924;-74
2022/12/26 15:18:43;;;;;;;;;;;9.30;99.90;;;;;;8427550;28;20280;-74
2022/12/26 15:22:53;;;;;;;;;;;8.90;99.90;;;;;;8424109;28;20374;-75
2022/12/26 15:27:14;;;;;;;;;;;8.50;99.90;;;;;;8429661;28;19931;-74
2022/12/26 15:31:16;;;;;;;;;;;8.20;99.90;;;;;;8422647;28;19983;-74
2022/12/26 15:35:20;;;;;;;;;;;7.90;99.90;;;;;;8416224;28;19955;-74
2022/12/26 15:39:37;;;;;;;;;;;7.70;99.90;;;;;;8418253;28;19928;-74
2022/12/26 15:43:39;;;;;;;;;;;7.50;99.90;;;;;;8416659;28;19931;-74
2022/12/26 15:48:03;;;;;;;;;;;7.30;99.90;;;;;;8420079;28;20039;-74
2022/12/26 15:52:08;;;;;;;;;;;7.20;99.90;;;;;;8425052;28;19924;-74
2022/12/26 15:56:09;;;;;;;;;;;7.10;99.90;;;;;;8409846;28;19931;-74
2022/12/26 16:05:20;;;;;;;;;;;6.80;99.90;;;;;;8393677;28;20015;-74
2022/12/26 16:09:22;;;;;;;;;;;6.60;99.90;;;;;;8411079;28;19928;-74
2022/12/26 16:13:23;;;;;;;;;;;6.50;99.90;;;;;;8422757;28;20399;-74
2022/12/26 16:17:26;;;;;;;;;;;6.40;99.90;;;;;;8399850;28;19943;-74
2022/12/26 16:26:04;;;;;;;;;;;6.20;99.90;;;;;;8353777;28;19924;-74
2022/12/26 16:30:11;;;;;;;;;;;6.00;99.90;;;;;;8406895;28;19928;-74
2022/12/26 16:34:15;;;;;;;;;;;5.90;99.90;;;;;;8399891;28;19924;-74
2022/12/26 16:38:27;;;;;;;;;;;5.90;99.90;;;;;;8393265;28;20014;-73
2022/12/26 16:42:30;;;;;;;;;;;5.80;99.90;;;;;;8409286;28;20392;-73
2022/12/26 16:46:31;;;;;;;;;;;5.60;99.90;;;;;;8421595;28;19935;-74
2022/12/26 16:50:36;;;;;;;;;;;5.40;99.90;;;;;;8384307;28;19924;-74
2022/12/26 16:54:39;;;;;;;;;;;5.40;99.90;;;;;;8415637;28;19974;-74
2022/12/26 16:58:40;;;;;;;;;;;5.30;99.90;;;;;;8397167;28;19963;-74
2022/12/26 17:02:44;;;;;;;;;;;5.20;99.90;;;;;;8404642;28;20311;-74
2022/12/26 17:11:50;;;;;;;;;;;5.10;99.90;;;;;;8401927;28;19927;-74
2022/12/26 17:15:56;;;;;;;;;;;4.90;99.90;;;;;;8409495;28;19924;-74
2022/12/26 17:20:18;;;;;;;;;;;4.90;99.90;;;;;;8398471;28;19924;-74
2022/12/26 17:24:24;;;;;;;;;;;4.80;99.90;;;;;;8400767;28;19954;-74
2022/12/26 17:28:27;;;;;;;;;;;4.80;99.90;;;;;;8417272;28;20419;-74
2022/12/26 17:32:31;;;;;;;;;;;4.80;99.90;;;;;;8398580;28;20023;-74
2022/12/26 17:36:33;;;;;;;;;;;4.70;99.90;;;;;;8402043;28;19931;-74
2022/12/26 17:40:56;;;;;;;;;;;4.60;99.90;;;;;;8384435;28;20043;-74
2022/12/26 17:44:58;;;;;;;;;;;4.60;99.90;;;;;;8403301;28;20018;-74
2022/12/26 17:49:00;;;;;;;;;;;4.60;99.90;;;;;;8406465;28;19932;-74
2022/12/26 17:53:06;;;;;;;;;;;4.60;99.90;;;;;;8408606;28;19990;-73
2022/12/26 17:57:14;;;;;;;;;;;4.60;99.90;;;;;;8406447;28;20385;-74
2022/12/26 18:01:17;;;;;;;;;;;4.60;99.90;;;;;;8395882;28;20001;-73
2022/12/26 18:05:22;;;;;;;;;;;4.70;99.90;;;;;;8394930;28;20403;-74
2022/12/26 18:09:26;;;;;;;;;;;4.80;99.90;;;;;;8396306;28;19928;-74
2022/12/26 18:13:28;;;;;;;;;;;4.90;99.90;;;;;;8392721;28;19924;-74
2022/12/26 18:17:31;;;;;;;;;;;5.00;99.90;;;;;;8405354;28;20066;-74
2022/12/26 18:21:33;;;;;;;;;;;5.00;99.90;;;;;;8405285;28;19932;-73
2022/12/26 18:25:35;;;;;;;;;;;5.00;99.90;;;;;;8389927;28;19931;-74
2022/12/26 18:29:39;;;;;;;;;;;4.90;99.90;;;;;;8402866;28;20302;-73
2022/12/26 18:33:41;;;;;;;;;;;4.90;99.90;;;;;;8390447;28;19992;-74
2022/12/26 18:37:44;;;;;;;;;;;4.80;99.90;;;;;;8406877;28;19924;-74
2022/12/26 18:41:46;;;;;;;;;;;4.80;99.90;;;;;;8423966;28;19947;-74
2022/12/26 18:45:47;;;;;;;;;;;4.70;99.90;;;;;;8400541;28;20022;-73
2022/12/26 18:49:49;;;;;;;;;;;4.80;99.90;;;;;;8404162;28;19943;-73
2022/12/26 18:53:51;;;;;;;;;;;4.70;99.90;;;;;;8399971;28;19935;-73
2022/12/26 18:57:53;;;;;;;;;;;4.70;99.90;;;;;;8413460;28;20291;-73
2022/12/26 19:01:55;;;;;;;;;;;4.70;99.90;;;;;;8391506;28;19958;-73
2022/12/26 19:05:57;;;;;;;;;;;4.70;99.90;;;;;;8403098;28;20363;-73
2022/12/26 19:09:59;;;;;;;;;;;4.80;99.90;;;;;;8420359;28;19938;-73
2022/12/26 19:14:03;;;;;;;;;;;4.80;99.90;;;;;;8388517;28;20454;-74
2022/12/26 19:18:04;;;;;;;;;;;4.80;99.90;;;;;;8404789;28;19924;-73
2022/12/26 19:22:06;;;;;;;;;;;4.90;99.90;;;;;;8406414;28;19928;-74
2022/12/26 19:26:11;;;;;;;;;;;4.90;99.90;;;;;;8390711;28;19932;-74
2022/12/26 19:30:13;;;;;;;;;;;4.90;99.90;;;;;;8406557;28;19928;-74
2022/12/26 19:34:15;;;;;;;;;;;4.90;99.90;;;;;;8408723;28;19963;-73
2022/12/26 19:38:16;;;;;;;;;;;4.90;99.90;;;;;;8403270;28;19925;-73
2022/12/26 19:42:18;;;;;;;;;;;4.80;99.90;;;;;;8419597;28;19928;-73
2022/12/26 19:46:20;;;;;;;;;;;4.80;99.90;;;;;;8387862;28;20286;-73
2022/12/26 19:50:21;;;;;;;;;;;4.80;99.90;;;;;;8399910;28;20400;-74
2022/12/26 19:54:23;;;;;;;;;;;4.80;99.90;;;;;;8408742;28;19931;-73
2022/12/26 19:58:28;;;;;;;;;;;4.70;99.90;;;;;;8399444;28;20034;-74
2022/12/26 20:02:30;;;;;;;;;;;4.70;99.90;;;;;;8403667;28;19932;-73
2022/12/26 20:06:33;;;;;;;;;;;4.70;99.90;;;;;;8426644;28;19956;-73
2022/12/26 20:10:35;;;;;;;;;;;4.60;99.90;;;;;;8406030;28;19925;-73
2022/12/26 20:14:36;;;;;;;;;;;4.60;99.90;;;;;;8386013;28;19931;-73
2022/12/26 20:18:38;;;;;;;;;;;4.60;99.90;;;;;;8418779;28;19932;-73
2022/12/26 20:22:40;;;;;;;;;;;4.50;99.90;;;;;;8385801;28;20295;-73
2022/12/26 20:26:41;;;;;;;;;;;4.50;99.90;;;;;;8402287;28;20019;-73
2022/12/26 20:30:43;;;;;;;;;;;4.50;99.90;;;;;;8402895;28;19925;-73
2022/12/26 20:34:45;;;;;;;;;;;4.50;99.90;;;;;;8405344;28;19929;-73
2022/12/26 20:38:51;;;;;;;;;;;4.40;99.90;;;;;;8417626;28;19925;-73
2022/12/26 20:42:52;;;;;;;;;;;4.50;99.90;;;;;;8401655;28;19928;-73
2022/12/26 20:46:54;;;;;;;;;;;4.40;99.90;;;;;;8399789;28;19947;-73
2022/12/26 20:50:57;;;;;;;;;;;4.40;99.90;;;;;;8384926;28;19979;-73
2022/12/26 20:54:58;;;;;;;;;;;4.40;99.90;;;;;;8404486;28;20402;-73
2022/12/26 20:59:00;;;;;;;;;;;4.50;99.90;;;;;;8406179;28;20394;-73
2022/12/26 21:03:02;;;;;;;;;;;4.50;99.90;;;;;;8409439;28;20014;-74
2022/12/26 21:07:06;;;;;;;;;;;4.60;99.90;;;;;;8402623;28;19993;-73
2022/12/26 21:11:09;;;;;;;;;;;4.60;99.90;;;;;;8403292;28;19951;-73
2022/12/26 21:15:11;;;;;;;;;;;4.60;99.90;;;;;;8400988;28;19938;-73
2022/12/26 21:19:13;;;;;;;;;;;4.50;99.90;;;;;;8396094;28;19968;-73
2022/12/26 21:23:16;;;;;;;;;;;4.40;99.90;;;;;;8383007;28;19951;-73
2022/12/26 21:27:17;;;;;;;;;;;4.20;99.90;;;;;;8416741;28;19924;-73
2022/12/26 21:31:19;;;;;;;;;;;4.20;99.90;;;;;;8404497;28;19929;-74
2022/12/26 21:35:21;;;;;;;;;;;4.10;99.90;;;;;;8392283;28;19932;-73
2022/12/26 21:39:22;;;;;;;;;;;4.10;99.90;;;;;;8415778;28;19924;-73
2022/12/26 21:43:29;;;;;;;;;;;4.20;99.90;;;;;;8395910;28;20391;-74
2022/12/26 21:47:30;;;;;;;;;;;4.10;99.90;;;;;;8400888;28;19989;-73
2022/12/26 21:51:32;;;;;;;;;;;4.10;99.90;;;;;;8392158;28;19971;-74
2022/12/26 21:55:36;;;;;;;;;;;4.10;99.90;;;;;;8404300;28;19937;-73
2022/12/26 21:59:56;;;;;;;;;;;4.10;99.90;;;;;;8399145;28;20030;-73
2022/12/26 22:08:18;;;;;;;;;;;4.10;99.90;;;;;;8420274;28;19952;-73
2022/12/26 22:16:40;;;;;;;;;;;4.10;99.90;;;;;;8431547;28;20401;-73
2022/12/26 22:20:43;;;;;;;;;;;4.00;99.90;;;;;;8426448;28;19951;-73
2022/12/26 22:24:45;;;;;;;;;;;4.10;99.90;;;;;;8436458;28;20378;-73
2022/12/26 22:28:47;;;;;;;;;;;4.00;99.90;;;;;;8429691;28;20355;-73
2022/12/26 22:32:49;;;;;;;;;;;3.90;99.90;;;;;;8423291;28;19928;-73
2022/12/26 22:36:54;;;;;;;;;;;3.90;99.90;;;;;;8427314;28;19924;-74
2022/12/26 22:40:56;;;;;;;;;;;3.90;99.90;;;;;;8424540;28;19963;-73
2022/12/26 22:44:58;;;;;;;;;;;3.80;99.90;;;;;;8413988;28;20324;-73
2022/12/26 22:48:59;;;;;;;;;;;3.80;99.90;;;;;;8428403;28;20379;-73
2022/12/26 22:53:01;;;;;;;;;;;3.90;99.90;;;;;;8440632;28;20022;-73
2022/12/26 22:57:03;;;;;;;;;;;3.80;99.90;;;;;;8429282;28;19959;-73
2022/12/26 23:01:14;;;;;;;;;;;3.90;99.90;;;;;;8435901;28;19946;-73
2022/12/26 23:05:16;;;;;;;;;;;3.80;99.90;;;;;;8438566;28;19935;-73
2022/12/26 23:09:18;;;;;;;;;;;3.80;99.90;;;;;;8439841;28;19924;-73
2022/12/26 23:13:20;;;;;;;;;;;3.80;99.90;;;;;;8439669;28;19932;-73
2022/12/26 23:21:44;;;;;;;;;;;3.80;99.90;;;;;;8446525;28;20363;-73
2022/12/26 23:25:46;;;;;;;;;;;3.70;99.90;;;;;;8439910;28;19936;-73
2022/12/26 23:34:09;;;;;;;;;;;3.70;99.90;;;;;;8437137;28;20337;-73
2022/12/26 23:38:10;;;;;;;;;;;3.70;99.90;;;;;;8436046;28;19928;-73
2022/12/26 23:42:12;;;;;;;;;;;3.70;99.90;;;;;;8418008;28;19969;-74
2022/12/26 23:46:14;;;;;;;;;;;3.70;99.90;;;;;;8437554;28;19932;-73
2022/12/26 23:50:15;;;;;;;;;;;3.70;99.90;;;;;;8431999;28;19934;-73
2022/12/26 23:54:17;;;;;;;;;;;3.80;99.90;;;;;;8442224;28;19924;-73
2022/12/26 23:58:19;;;;;;;;;;;3.90;99.90;;;;;;8414913;28;19932;-73
